createdAt,value
2023-10-12T00:02:04.101Z,3.85
2023-10-12T00:04:47.731Z,4.28
2023-10-12T00:07:29.295Z,3.95
2023-10-12T00:10:23.470Z,3.58
2023-10-12T00:13:01.251Z,3.33
2023-10-12T00:15:40.192Z,3.33
2023-10-12T00:18:20.079Z,4.07
2023-10-12T00:21:01.404Z,4.63
2023-10-12T00:23:35.237Z,3.95
2023-10-12T00:26:17.474Z,4.18
2023-10-12T00:28:55.405Z,3.90
2023-10-12T00:31:30.025Z,5.15
2023-10-12T00:34:12.138Z,5.07
2023-10-12T00:36:54.511Z,5.00
2023-10-12T00:39:34.377Z,5.30
2023-10-12T00:42:15.649Z,4.63
2023-10-12T00:44:53.808Z,5.47
2023-10-12T00:47:47.895Z,5.60
2023-10-12T00:50:32.484Z,5.90
2023-10-12T00:53:19.620Z,5.57
2023-10-12T00:56:01.754Z,5.10
2023-10-12T00:58:43.901Z,5.50
2023-10-12T01:01:38.765Z,5.55
2023-10-12T01:04:19.381Z,4.97
2023-10-12T01:07:01.161Z,6.27
2023-10-12T01:09:47.935Z,5.80
2023-10-12T01:12:24.009Z,5.10
2023-10-12T01:15:11.315Z,5.32
2023-10-12T01:17:53.706Z,5.57
2023-10-12T01:20:39.780Z,5.38
2023-10-12T01:23:21.944Z,5.28
2023-10-12T01:26:14.942Z,6.05
2023-10-12T01:29:05.844Z,5.70
2023-10-12T01:31:45.459Z,5.47
2023-10-12T01:34:28.554Z,5.15
2023-10-12T01:37:09.129Z,4.75
2023-10-12T01:39:58.552Z,4.88
2023-10-12T01:42:52.334Z,5.13
2023-10-12T01:45:52.204Z,5.45
2023-10-12T01:48:41.352Z,5.47
2023-10-12T01:51:22.255Z,4.82
2023-10-12T01:54:09.661Z,4.32
2023-10-12T01:56:52.646Z,5.47
2023-10-12T01:59:27.045Z,5.43
2023-10-12T02:02:10.201Z,5.00
2023-10-12T02:04:53.571Z,4.90
2023-10-12T02:07:26.978Z,4.50
2023-10-12T02:10:03.715Z,4.95
2023-10-12T02:12:44.304Z,5.03
2023-10-12T02:15:20.738Z,4.35
2023-10-12T02:17:53.002Z,4.50
2023-10-12T02:20:34.857Z,4.25
2023-10-12T02:23:14.730Z,4.05
2023-10-12T02:25:59.869Z,4.65
2023-10-12T02:28:50.435Z,4.47
2023-10-12T02:31:27.466Z,4.93
2023-10-12T02:34:07.101Z,4.70
2023-10-12T02:36:46.562Z,4.70
2023-10-12T02:39:25.298Z,4.68
2023-10-12T02:42:20.192Z,4.43
2023-10-12T02:45:13.513Z,4.88
2023-10-12T02:47:48.627Z,4.00
2023-10-12T02:50:48.284Z,4.72
2023-10-12T02:53:33.870Z,4.40
2023-10-12T02:56:07.256Z,4.20
2023-10-12T02:58:39.299Z,4.45
2023-10-12T03:01:22.170Z,5.10
2023-10-12T03:04:03.921Z,4.60
2023-10-12T03:06:55.154Z,5.80
2023-10-12T03:09:40.782Z,5.80
2023-10-12T03:12:27.904Z,5.57
2023-10-12T03:15:07.077Z,5.68
2023-10-12T03:17:44.089Z,7.50
2023-10-12T03:20:30.694Z,6.43
2023-10-12T03:23:16.641Z,6.30
2023-10-12T03:26:06.203Z,6.00
2023-10-12T03:29:04.388Z,6.07
2023-10-12T03:31:57.188Z,6.43
2023-10-12T03:34:57.846Z,5.85
2023-10-12T03:37:43.977Z,5.95
2023-10-12T03:40:31.881Z,6.60
2023-10-12T03:43:18.106Z,6.15
2023-10-12T03:46:05.402Z,5.47
2023-10-12T03:49:07.233Z,7.65
2023-10-12T03:52:02.563Z,5.75
2023-10-12T03:54:35.375Z,6.28
2023-10-12T03:57:24.825Z,5.82
2023-10-12T04:00:28.225Z,6.50
2023-10-12T04:03:09.733Z,6.13
2023-10-12T04:08:56.557Z,7.70
2023-10-12T04:12:02.238Z,8.65
2023-10-12T04:14:47.326Z,9.38
2023-10-12T04:17:41.582Z,9.88
2023-10-12T04:20:26.533Z,9.18
2023-10-12T04:23:22.708Z,11.02
2023-10-12T04:26:30.536Z,11.50
2023-10-12T04:29:15.923Z,11.27
2023-10-12T04:31:55.256Z,13.35
2023-10-12T04:37:38.372Z,14.15
2023-10-12T04:40:42.801Z,12.63
2023-10-12T04:43:34.350Z,12.32
2023-10-12T04:46:49.589Z,11.88
2023-10-12T04:49:35.608Z,12.00
2023-10-12T04:52:22.506Z,12.13
2023-10-12T04:55:24.482Z,11.93
2023-10-12T04:58:15.246Z,12.25
2023-10-12T05:01:24.846Z,11.98
2023-10-12T05:04:10.724Z,11.30
2023-10-12T05:06:52.474Z,12.20
2023-10-12T05:09:29.700Z,12.30
2023-10-12T05:12:05.461Z,12.23
2023-10-12T05:14:40.968Z,13.85
2023-10-12T05:17:20.356Z,13.48
2023-10-12T05:20:00.289Z,12.55
2023-10-12T05:22:34.766Z,13.40
2023-10-12T05:25:11.201Z,13.20
2023-10-12T05:28:07.203Z,13.68
2023-10-12T05:30:51.001Z,13.80
2023-10-12T05:33:47.304Z,14.45
2023-10-12T05:36:21.984Z,14.40
2023-10-12T05:39:03.649Z,14.85
2023-10-12T05:41:41.679Z,15.80
2023-10-12T05:44:44.986Z,13.27
2023-10-12T05:47:31.992Z,13.18
2023-10-12T05:50:19.291Z,13.00
2023-10-12T05:52:57.278Z,20.98
2023-10-12T05:55:30.601Z,14.43
2023-10-12T05:58:14.352Z,12.43
2023-10-12T06:00:51.015Z,11.95
2023-10-12T06:03:22.692Z,11.43
2023-10-12T06:06:04.193Z,11.48
2023-10-12T06:08:41.328Z,11.02
2023-10-12T06:11:34.263Z,11.20
2023-10-12T06:14:19.329Z,9.60
2023-10-12T06:17:03.368Z,9.85
2023-10-12T06:19:48.321Z,9.48
2023-10-12T06:22:37.481Z,9.25
2023-10-12T06:25:23.814Z,7.97
2023-10-12T06:28:01.099Z,7.78
2023-10-12T06:30:32.790Z,8.68
2023-10-12T06:33:09.243Z,8.65
2023-10-12T06:36:02.775Z,8.93
2023-10-12T06:38:53.153Z,7.82
2023-10-12T06:41:46.809Z,10.90
2023-10-12T06:44:29.828Z,10.52
2023-10-12T06:47:21.841Z,9.45
2023-10-12T06:50:05.982Z,8.93
2023-10-12T06:52:46.138Z,8.50
2023-10-12T06:55:36.074Z,8.13
2023-10-12T06:58:16.242Z,8.48
2023-10-12T07:01:04.444Z,7.93
2023-10-12T07:03:39.388Z,7.63
2023-10-12T07:06:21.338Z,7.20
2023-10-12T07:08:52.755Z,6.88
2023-10-12T07:11:34.342Z,7.28
2023-10-12T07:14:14.044Z,6.60
2023-10-12T07:16:57.408Z,7.25
2023-10-12T07:19:27.848Z,6.78
2023-10-12T07:22:04.316Z,6.97
2023-10-12T07:24:44.728Z,6.18
2023-10-12T07:27:22.529Z,6.53
2023-10-12T07:30:15.747Z,7.75
2023-10-12T07:32:59.851Z,7.10
2023-10-12T07:35:36.414Z,6.07
2023-10-12T07:38:29.727Z,7.07
2023-10-12T07:41:12.267Z,6.38
2023-10-12T07:43:54.409Z,6.38
2023-10-12T07:46:30.917Z,6.47
2023-10-12T07:49:25.536Z,5.65
2023-10-12T07:52:15.759Z,7.18
2023-10-12T07:55:05.901Z,5.82
2023-10-12T07:57:42.812Z,6.45
2023-10-12T08:00:47.093Z,6.22
2023-10-12T08:03:28.387Z,6.60
2023-10-12T08:06:02.144Z,5.65
2023-10-12T08:08:49.044Z,5.75
2023-10-12T08:11:33.604Z,6.70
2023-10-12T08:14:42.117Z,6.25
2023-10-12T08:17:40.908Z,5.63
2023-10-12T08:20:30.661Z,6.65
2023-10-12T08:23:23.009Z,5.18
2023-10-12T08:26:06.546Z,5.38
2023-10-12T08:28:56.730Z,5.50
2023-10-12T08:31:36.731Z,5.95
2023-10-12T08:34:41.734Z,5.45
2023-10-12T08:37:27.769Z,5.43
2023-10-12T08:40:09.738Z,5.25
2023-10-12T08:42:59.814Z,5.30
2023-10-12T08:45:35.782Z,5.32
2023-10-12T08:48:22.596Z,5.57
2023-10-12T08:51:18.655Z,25.08
2023-10-12T08:54:01.974Z,5.47
2023-10-12T08:56:49.147Z,7.05
2023-10-12T08:59:26.539Z,5.03
2023-10-12T09:02:20.542Z,5.20
2023-10-12T09:05:04.362Z,5.65
2023-10-12T09:10:40.523Z,5.43
2023-10-12T09:13:20.667Z,6.07
2023-10-12T09:16:12.165Z,5.50
2023-10-12T09:19:01.524Z,6.70
2023-10-12T09:21:41.697Z,5.03
2023-10-12T09:24:30.636Z,4.83
2023-10-12T09:27:16.083Z,5.97
2023-10-12T09:30:06.139Z,5.10
2023-10-12T09:33:15.064Z,6.32
2023-10-12T09:35:53.462Z,5.90
2023-10-12T09:38:32.165Z,5.72
2023-10-12T09:41:12.993Z,5.72
2023-10-12T09:43:57.950Z,5.35
2023-10-12T09:46:36.128Z,5.63
2023-10-12T09:49:26.367Z,5.50
2023-10-12T09:52:10.515Z,8.17
2023-10-12T09:54:53.680Z,14.45
2023-10-12T09:57:38.038Z,6.05
2023-10-12T10:00:34.109Z,7.60
2023-10-12T10:03:10.627Z,10.65
2023-10-12T10:06:08.791Z,7.38
2023-10-12T10:08:51.304Z,9.25
2023-10-12T10:11:31.551Z,7.07
2023-10-12T10:14:14.859Z,5.65
2023-10-12T10:17:01.502Z,5.07
2023-10-12T10:19:46.260Z,6.32
2023-10-12T10:22:25.045Z,5.55
2023-10-12T10:25:01.017Z,5.35
2023-10-12T10:27:37.107Z,5.10
2023-10-12T10:30:38.225Z,5.70
2023-10-12T10:33:19.302Z,4.70
2023-10-12T10:36:14.548Z,5.07
2023-10-12T10:38:55.800Z,4.82
2023-10-12T10:41:43.118Z,4.75
2023-10-12T10:44:21.153Z,5.53
2023-10-12T10:47:10.878Z,5.20
2023-10-12T10:49:46.816Z,5.53
2023-10-12T10:52:21.960Z,5.80
2023-10-12T10:55:01.577Z,5.22
2023-10-12T10:57:57.752Z,5.38
2023-10-12T11:00:38.714Z,4.95
2023-10-12T11:06:04.396Z,5.22
2023-10-12T11:08:40.332Z,5.90
2023-10-12T11:11:30.211Z,5.18
2023-10-12T11:14:12.984Z,5.00
2023-10-12T11:17:08.259Z,5.07
2023-10-12T11:19:52.972Z,4.90
2023-10-12T11:22:31.578Z,4.72
2023-10-12T11:25:06.055Z,5.03
2023-10-12T11:27:41.582Z,4.50
2023-10-12T11:30:23.178Z,4.68
2023-10-12T11:33:17.063Z,4.70
2023-10-12T11:36:12.553Z,5.65
2023-10-12T11:38:49.909Z,4.32
2023-10-12T11:41:26.392Z,3.97
2023-10-12T11:44:12.109Z,4.82
2023-10-12T11:47:01.045Z,3.65
2023-10-12T11:49:39.366Z,15.80
2023-10-12T11:52:39.461Z,5.25
2023-10-12T11:56:07.454Z,5.10
2023-10-12T11:58:49.448Z,5.53
2023-10-12T12:01:21.278Z,4.55
2023-10-12T12:03:56.307Z,4.15
2023-10-12T12:06:33.786Z,5.25
2023-10-12T12:09:10.595Z,5.63
2023-10-12T12:11:42.640Z,5.32
2023-10-12T12:14:15.246Z,4.85
2023-10-12T12:16:55.854Z,3.97
2023-10-12T12:19:29.251Z,4.03
2023-10-12T12:22:01.527Z,4.35
2023-10-12T12:24:37.581Z,4.05
2023-10-12T12:27:31.567Z,4.32
2023-10-12T12:32:50.919Z,4.22
2023-10-12T12:35:30.832Z,4.07
2023-10-12T12:38:18.274Z,4.57
2023-10-12T12:41:24.480Z,4.13
2023-10-12T12:44:04.032Z,4.47
2023-10-12T12:47:02.411Z,4.45
2023-10-12T12:49:40.961Z,4.90
2023-10-12T12:52:22.284Z,4.03
2023-10-12T12:55:08.406Z,4.45
2023-10-12T12:57:55.901Z,4.75
2023-10-12T13:00:39.528Z,4.30
2023-10-12T13:03:21.575Z,5.22
2023-10-12T13:05:59.047Z,4.85
2023-10-12T13:08:37.090Z,4.75
2023-10-12T13:11:15.479Z,4.05
2023-10-12T13:14:11.146Z,4.90
2023-10-12T13:16:53.741Z,5.70
2023-10-12T13:19:31.477Z,4.38
2023-10-12T13:22:06.521Z,4.78
2023-10-12T13:24:53.603Z,4.50
2023-10-12T13:27:33.094Z,4.40
2023-10-12T13:30:16.886Z,4.65
2023-10-12T13:32:50.468Z,4.38
2023-10-12T13:35:40.701Z,4.47
2023-10-12T13:38:38.638Z,5.85
2023-10-12T13:41:28.494Z,5.47
2023-10-12T13:44:10.665Z,4.38
2023-10-12T13:47:02.968Z,4.13
2023-10-12T13:49:47.468Z,4.13
2023-10-12T13:52:25.854Z,5.03
2023-10-12T13:55:13.952Z,4.82
2023-10-12T13:57:58.969Z,4.38
2023-10-12T14:00:43.730Z,4.13
2023-10-12T14:03:40.858Z,4.10
2023-10-12T14:06:25.158Z,4.72
2023-10-12T14:09:13.390Z,5.22
2023-10-12T14:11:51.655Z,4.45
2023-10-12T14:14:30.754Z,5.38
2023-10-12T14:17:14.036Z,4.40
2023-10-12T14:20:02.846Z,4.72
2023-10-12T14:22:53.288Z,3.92
2023-10-12T14:25:39.958Z,5.03
2023-10-12T14:28:25.969Z,4.97
2023-10-12T14:31:16.772Z,4.50
2023-10-12T14:34:15.115Z,4.53
2023-10-12T14:36:59.368Z,4.60
2023-10-12T14:39:38.519Z,4.50
2023-10-12T14:42:22.245Z,5.50
2023-10-12T14:44:57.374Z,5.28
2023-10-12T14:47:29.547Z,5.07
2023-10-12T14:50:26.967Z,5.00
2023-10-12T14:53:13.361Z,5.88
2023-10-12T14:56:02.129Z,5.35
2023-10-12T14:59:25.901Z,5.53
2023-10-12T15:02:10.626Z,4.85
2023-10-12T15:04:43.635Z,4.90
2023-10-12T15:07:23.857Z,5.20
2023-10-12T15:10:20.438Z,4.00
2023-10-12T15:13:16.747Z,4.78
2023-10-12T15:15:53.732Z,5.05
2023-10-12T15:18:30.189Z,5.55
2023-10-12T15:21:17.236Z,5.47
2023-10-12T15:23:57.128Z,6.70
2023-10-12T15:26:41.077Z,7.20
2023-10-12T15:29:22.479Z,7.53
2023-10-12T15:32:00.140Z,8.07
2023-10-12T15:34:41.855Z,8.43
2023-10-12T15:37:16.854Z,6.68
2023-10-12T15:39:52.354Z,7.00
2023-10-12T15:42:35.023Z,6.47
2023-10-12T15:45:18.886Z,5.90
2023-10-12T15:48:02.452Z,5.47
2023-10-12T15:50:38.163Z,6.55
2023-10-12T15:53:24.874Z,5.93
2023-10-12T15:56:00.416Z,7.28
2023-10-12T15:58:39.960Z,7.75
2023-10-12T16:01:20.736Z,7.65
2023-10-12T16:04:26.679Z,6.90
2023-10-12T16:07:21.522Z,6.82
2023-10-12T16:09:57.302Z,6.47
2023-10-12T16:12:34.871Z,6.82
2023-10-12T16:15:09.035Z,6.65
2023-10-12T16:17:53.371Z,6.30
2023-10-12T16:20:43.606Z,6.78
2023-10-12T16:23:17.804Z,7.25
2023-10-12T16:26:06.037Z,7.50
2023-10-12T16:28:42.642Z,7.75
2023-10-12T16:31:18.452Z,7.60
2023-10-12T16:34:12.088Z,7.00
2023-10-12T16:37:01.426Z,7.78
2023-10-12T16:39:36.516Z,7.68
2023-10-12T16:42:13.733Z,7.32
2023-10-12T16:44:50.886Z,7.38
2023-10-12T16:47:30.669Z,7.25
2023-10-12T16:50:15.577Z,7.18
2023-10-12T16:52:51.331Z,6.85
2023-10-12T16:55:31.924Z,6.78
2023-10-12T16:58:11.998Z,7.00
2023-10-12T17:00:55.473Z,6.97
2023-10-12T17:03:31.840Z,6.60
2023-10-12T17:06:24.739Z,6.53
2023-10-12T17:08:59.369Z,6.68
2023-10-12T17:11:41.471Z,7.03
2023-10-12T17:14:24.500Z,6.78
2023-10-12T17:17:01.781Z,6.90
2023-10-12T17:19:41.537Z,7.63
2023-10-12T17:22:20.103Z,7.60
2023-10-12T17:24:58.279Z,8.45
2023-10-12T17:27:34.460Z,8.65
2023-10-12T17:30:09.838Z,7.85
2023-10-12T17:32:46.523Z,8.48
2023-10-12T17:35:34.669Z,8.65
2023-10-12T17:38:15.336Z,9.32
2023-10-12T17:40:57.503Z,8.60
2023-10-12T17:43:35.174Z,9.68
2023-10-12T17:46:19.545Z,9.93
2023-10-12T17:49:03.886Z,9.15
2023-10-12T17:51:49.745Z,9.07
2023-10-12T17:54:39.108Z,10.13
2023-10-12T17:57:20.429Z,9.68
2023-10-12T18:00:21.699Z,8.80
2023-10-12T18:06:01.660Z,9.10
2023-10-12T18:08:42.612Z,8.80
2023-10-12T18:14:07.709Z,8.93
2023-10-12T18:16:42.585Z,10.00
2023-10-12T18:19:16.128Z,7.72
2023-10-12T18:21:57.144Z,8.82
2023-10-12T18:24:36.842Z,8.77
2023-10-12T18:27:15.077Z,8.63
2023-10-12T18:30:03.819Z,9.70
2023-10-12T18:32:43.434Z,10.43
2023-10-12T18:35:26.579Z,8.07
2023-10-12T18:38:10.948Z,9.77
2023-10-12T18:40:53.881Z,10.60
2023-10-12T18:43:31.494Z,10.40
2023-10-12T18:46:07.615Z,10.23
2023-10-12T18:48:49.108Z,9.70
2023-10-12T18:51:31.200Z,10.02
2023-10-12T18:54:07.899Z,10.30
2023-10-12T18:56:44.958Z,10.20
2023-10-12T18:59:27.960Z,10.10
2023-10-12T19:02:02.497Z,11.05
2023-10-12T19:04:35.313Z,9.82
2023-10-12T19:07:19.879Z,9.50
2023-10-12T19:09:59.348Z,10.85
2023-10-12T19:12:40.634Z,11.02
2023-10-12T19:15:19.593Z,11.27
2023-10-12T19:18:13.389Z,10.65
2023-10-12T19:20:46.582Z,10.80
2023-10-12T19:23:20.769Z,10.63
2023-10-12T19:25:59.962Z,12.27
2023-10-12T19:28:36.024Z,11.90
2023-10-12T19:31:22.902Z,12.00
2023-10-12T19:33:57.437Z,11.80
2023-10-12T19:36:32.599Z,11.63
2023-10-12T19:39:12.941Z,11.60
2023-10-12T19:41:48.050Z,11.45
2023-10-12T19:44:21.021Z,11.52
2023-10-12T19:47:02.578Z,13.10
2023-10-12T19:49:51.106Z,11.80
2023-10-12T19:52:29.543Z,13.07
2023-10-12T19:55:07.260Z,11.63
2023-10-12T19:57:40.258Z,13.10
2023-10-12T20:00:25.433Z,18.55
2023-10-12T20:03:20.113Z,17.33
2023-10-12T20:06:08.183Z,16.13
2023-10-12T20:08:40.113Z,17.42
2023-10-12T20:11:18.010Z,15.68
2023-10-12T20:14:01.902Z,16.25
2023-10-12T20:16:35.245Z,16.33
2023-10-12T20:19:17.295Z,15.43
2023-10-12T20:21:49.344Z,17.77
2023-10-12T20:24:34.477Z,15.35
2023-10-12T20:27:07.794Z,18.60
2023-10-12T20:29:47.104Z,17.92
2023-10-12T20:32:20.662Z,17.55
2023-10-12T20:35:00.764Z,15.95
2023-10-12T20:37:36.582Z,18.13
2023-10-12T20:40:23.005Z,18.88
2023-10-12T20:43:04.263Z,19.38
2023-10-12T20:45:39.646Z,19.33
2023-10-12T20:48:31.907Z,20.05
2023-10-12T20:51:17.417Z,18.80
2023-10-12T20:53:58.481Z,18.27
2023-10-12T20:56:43.799Z,18.92
2023-10-12T20:59:31.732Z,17.98
2023-10-12T21:02:23.502Z,18.55
2023-10-12T21:05:06.586Z,17.73
2023-10-12T21:07:48.400Z,17.13
2023-10-12T21:10:24.754Z,17.38
2023-10-12T21:13:13.093Z,16.92
2023-10-12T21:15:57.647Z,16.25
2023-10-12T21:18:55.861Z,17.58
2023-10-12T21:21:37.066Z,16.42
2023-10-12T21:24:20.221Z,16.50
2023-10-12T21:26:58.409Z,16.65
2023-10-12T21:29:37.792Z,15.77
2023-10-12T21:32:32.053Z,14.80
2023-10-12T21:35:24.227Z,15.38
2023-10-12T21:38:15.619Z,15.95
2023-10-12T21:41:00.953Z,16.33
2023-10-12T21:43:39.890Z,16.40
2023-10-12T21:46:18.364Z,16.77
2023-10-12T21:48:55.224Z,15.57
2023-10-12T21:51:37.028Z,15.32
2023-10-12T21:54:16.910Z,16.33
2023-10-12T21:57:05.049Z,16.33
2023-10-12T21:59:37.897Z,14.18
2023-10-12T22:02:24.266Z,16.08
2023-10-12T22:05:03.286Z,14.75
2023-10-12T22:07:52.523Z,15.85
2023-10-12T22:10:28.718Z,14.88
2023-10-12T22:13:14.501Z,16.65
2023-10-12T22:16:05.157Z,16.45
2023-10-12T22:18:52.494Z,16.00
2023-10-12T22:21:37.634Z,14.18
2023-10-12T22:24:24.317Z,14.35
2023-10-12T22:27:15.501Z,14.07
2023-10-12T22:29:57.087Z,13.90
2023-10-12T22:32:34.975Z,13.52
2023-10-12T22:35:14.272Z,14.02
2023-10-12T22:37:52.324Z,12.95
2023-10-12T22:40:31.097Z,13.82
2023-10-12T22:43:17.060Z,13.93
2023-10-12T22:46:09.775Z,14.00
2023-10-12T22:48:40.491Z,12.98
2023-10-12T22:51:16.320Z,12.77
2023-10-12T22:54:01.037Z,14.02
2023-10-12T22:56:40.798Z,13.48
2023-10-12T22:59:23.943Z,12.43
2023-10-12T23:02:07.329Z,11.98
2023-10-12T23:04:44.121Z,12.45
2023-10-12T23:07:20.628Z,13.25
2023-10-12T23:10:06.892Z,13.30
2023-10-12T23:12:43.314Z,13.15
2023-10-12T23:15:22.674Z,14.80
2023-10-12T23:18:18.285Z,15.38
2023-10-12T23:21:07.106Z,15.32
2023-10-12T23:23:39.058Z,12.93
2023-10-12T23:26:22.457Z,14.30
2023-10-12T23:28:58.351Z,12.80
2023-10-12T23:31:46.590Z,13.48
2023-10-12T23:34:36.737Z,12.90
2023-10-12T23:37:20.156Z,14.40
2023-10-12T23:39:58.025Z,13.88
2023-10-12T23:42:41.047Z,13.70
2023-10-12T23:45:36.928Z,13.65
2023-10-12T23:48:27.564Z,12.85
2023-10-12T23:51:15.075Z,13.00
2023-10-12T23:54:03.791Z,12.75
2023-10-12T23:56:44.946Z,13.50
2023-10-12T23:59:24.279Z,12.63
